createdAt,value
2023-01-09T00:02:26.280Z,6.79
2023-01-09T00:05:29.357Z,6.66
2023-01-09T00:08:32.443Z,6.59
2023-01-09T00:11:35.385Z,6.56
2023-01-09T00:14:38.126Z,6.65
2023-01-09T00:17:41.379Z,6.52
2023-01-09T00:20:44.196Z,6.49
2023-01-09T00:23:47.144Z,6.35
2023-01-09T00:26:49.821Z,6.31
2023-01-09T00:29:53.197Z,6.34
2023-01-09T00:32:56.499Z,6.21
2023-01-09T00:35:59.336Z,6.13
2023-01-09T00:39:02.259Z,6.12
2023-01-09T00:42:06.952Z,6.09
2023-01-09T00:45:14.699Z,6.08
2023-01-09T00:48:26.980Z,6.03
2023-01-09T00:51:29.801Z,6.00
2023-01-09T00:54:33.122Z,6.05
2023-01-09T00:57:35.881Z,5.98
2023-01-09T01:00:38.890Z,5.95
2023-01-09T01:03:41.681Z,6.05
2023-01-09T01:07:03.380Z,5.94
2023-01-09T01:10:10.515Z,5.98
2023-01-09T01:13:14.395Z,5.80
2023-01-09T01:16:18.419Z,5.86
2023-01-09T01:19:21.441Z,5.80
2023-01-09T01:22:24.177Z,5.82
2023-01-09T01:25:27.663Z,5.84
2023-01-09T01:28:30.238Z,5.88
2023-01-09T01:31:33.173Z,5.82
2023-01-09T01:34:35.739Z,5.84
2023-01-09T01:37:39.244Z,5.79
2023-01-09T01:40:41.849Z,5.75
2023-01-09T01:43:56.159Z,5.69
2023-01-09T01:46:58.812Z,5.68
2023-01-09T01:50:08.483Z,5.57
2023-01-09T01:53:14.115Z,5.46
2023-01-09T01:56:32.804Z,5.35
2023-01-09T01:59:41.027Z,5.27
2023-01-09T02:02:45.996Z,5.22
2023-01-09T02:05:49.258Z,5.19
2023-01-09T02:08:51.892Z,5.08
2023-01-09T02:11:58.418Z,5.12
2023-01-09T02:15:11.654Z,5.22
2023-01-09T02:18:26.196Z,5.20
2023-01-09T02:21:28.741Z,5.16
2023-01-09T02:24:55.486Z,5.27
2023-01-09T02:28:36.619Z,5.13
2023-01-09T02:31:50.108Z,5.15
2023-01-09T02:34:55.475Z,5.18
2023-01-09T02:38:02.655Z,5.14
2023-01-09T02:41:13.183Z,5.13
2023-01-09T02:44:18.142Z,5.06
2023-01-09T02:47:20.832Z,5.04
2023-01-09T02:51:01.298Z,5.01
2023-01-09T02:54:25.297Z,5.02
2023-01-09T02:57:49.571Z,5.04
2023-01-09T03:00:58.194Z,5.13
2023-01-09T03:04:21.411Z,5.18
2023-01-09T03:07:37.791Z,5.15
2023-01-09T03:10:56.228Z,5.14
2023-01-09T03:14:07.194Z,5.11
2023-01-09T03:17:14.309Z,5.02
2023-01-09T03:20:21.835Z,5.03
2023-01-09T03:23:24.732Z,5.07
2023-01-09T03:26:29.543Z,5.07
2023-01-09T03:29:32.983Z,4.94
2023-01-09T03:32:35.631Z,5.04
2023-01-09T03:35:38.549Z,4.96
2023-01-09T03:38:41.438Z,5.11
2023-01-09T03:41:44.333Z,4.96
2023-01-09T03:44:46.946Z,5.07
2023-01-09T03:47:52.261Z,5.03
2023-01-09T03:50:56.191Z,4.96
2023-01-09T03:53:59.147Z,5.07
2023-01-09T03:57:01.856Z,5.02
2023-01-09T04:00:05.527Z,4.99
2023-01-09T04:03:16.753Z,4.96
2023-01-09T04:06:19.824Z,4.97
2023-01-09T04:09:22.679Z,5.00
2023-01-09T04:12:25.776Z,5.09
2023-01-09T04:15:28.376Z,5.07
2023-01-09T04:18:31.292Z,5.09
2023-01-09T04:21:34.531Z,5.13
2023-01-09T04:24:37.390Z,5.03
2023-01-09T04:27:40.053Z,4.98
2023-01-09T04:30:43.307Z,4.91
2023-01-09T04:33:45.917Z,4.99
2023-01-09T04:36:48.857Z,4.92
2023-01-09T04:39:53.930Z,4.91
2023-01-09T04:42:56.872Z,5.01
2023-01-09T04:45:59.555Z,5.06
2023-01-09T04:49:02.984Z,5.15
2023-01-09T04:52:06.106Z,5.06
2023-01-09T04:55:09.465Z,5.14
2023-01-09T04:58:12.144Z,5.03
2023-01-09T05:01:15.225Z,5.15
2023-01-09T05:04:18.146Z,5.19
2023-01-09T05:07:21.172Z,5.09
2023-01-09T05:10:23.931Z,5.26
2023-01-09T05:13:27.165Z,5.39
2023-01-09T05:16:31.371Z,5.31
2023-01-09T05:19:34.733Z,5.41
2023-01-09T05:22:37.498Z,5.53
2023-01-09T05:25:42.480Z,5.34
2023-01-09T05:28:45.312Z,5.38
2023-01-09T05:31:48.321Z,5.40
2023-01-09T05:34:50.940Z,5.41
2023-01-09T05:37:53.988Z,5.53
2023-01-09T05:40:56.580Z,5.50
2023-01-09T05:43:59.456Z,5.75
2023-01-09T05:47:02.999Z,5.79
2023-01-09T05:50:23.259Z,5.75
2023-01-09T05:53:50.810Z,5.81
2023-01-09T05:56:53.717Z,5.75
2023-01-09T05:59:56.377Z,5.60
2023-01-09T06:03:00.128Z,5.60
2023-01-09T06:06:03.283Z,5.65
2023-01-09T06:09:05.948Z,5.61
2023-01-09T06:12:08.895Z,5.79
2023-01-09T06:15:11.825Z,5.88
2023-01-09T06:18:14.996Z,5.78
2023-01-09T06:21:17.725Z,5.74
2023-01-09T06:24:20.698Z,5.58
2023-01-09T06:27:23.311Z,6.01
2023-01-09T06:30:26.225Z,5.77
2023-01-09T06:33:28.793Z,6.09
2023-01-09T06:36:31.646Z,5.93
2023-01-09T06:39:34.331Z,6.01
2023-01-09T06:42:37.329Z,6.15
2023-01-09T06:45:41.736Z,6.38
2023-01-09T06:48:47.536Z,6.15
2023-01-09T06:51:51.866Z,6.49
2023-01-09T06:54:54.877Z,6.28
2023-01-09T06:57:57.501Z,6.36
2023-01-09T07:01:00.532Z,6.32
2023-01-09T07:04:05.412Z,6.27
2023-01-09T07:07:08.353Z,6.20
2023-01-09T07:10:11.701Z,6.46
2023-01-09T07:13:14.702Z,6.24
2023-01-09T07:16:18.302Z,6.32
2023-01-09T07:19:25.543Z,6.52
2023-01-09T07:22:28.240Z,6.48
2023-01-09T07:25:33.507Z,6.38
2023-01-09T07:28:37.723Z,6.60
2023-01-09T07:31:40.687Z,6.60
2023-01-09T07:34:43.790Z,6.85
2023-01-09T07:37:47.950Z,6.79
2023-01-09T07:40:50.784Z,6.80
2023-01-09T07:43:53.673Z,6.71
2023-01-09T07:46:56.415Z,6.83
2023-01-09T07:49:59.463Z,6.73
2023-01-09T07:53:02.257Z,7.12
2023-01-09T07:56:05.611Z,7.03
2023-01-09T07:59:08.555Z,7.24
2023-01-09T08:02:12.478Z,7.11
2023-01-09T08:05:16.082Z,7.28
2023-01-09T08:08:18.672Z,7.19
2023-01-09T08:11:21.915Z,7.11
2023-01-09T08:14:24.808Z,7.06
2023-01-09T08:17:28.282Z,7.07
2023-01-09T08:20:31.184Z,6.92
2023-01-09T08:23:34.160Z,7.07
2023-01-09T08:26:36.704Z,6.98
2023-01-09T08:29:39.704Z,6.96
2023-01-09T08:32:42.703Z,6.95
2023-01-09T08:35:46.094Z,7.00
2023-01-09T08:38:48.771Z,6.88
2023-01-09T08:42:10.377Z,7.02
2023-01-09T08:45:31.610Z,7.24
2023-01-09T08:48:34.793Z,6.93
2023-01-09T08:51:37.381Z,6.79
2023-01-09T08:54:40.652Z,6.85
2023-01-09T08:58:01.767Z,6.91
2023-01-09T09:01:08.427Z,6.64
2023-01-09T09:04:11.284Z,7.02
2023-01-09T09:07:14.404Z,7.06
2023-01-09T09:10:18.359Z,6.99
2023-01-09T09:13:21.414Z,6.93
2023-01-09T09:16:25.276Z,7.06
2023-01-09T09:19:28.336Z,6.81
2023-01-09T09:22:31.453Z,6.94
2023-01-09T09:25:38.313Z,6.85
2023-01-09T09:28:40.978Z,6.87
2023-01-09T09:31:44.437Z,6.97
2023-01-09T09:34:47.072Z,6.97
2023-01-09T09:37:58.106Z,6.98
2023-01-09T09:41:29.693Z,7.00
2023-01-09T09:45:05.261Z,7.15
2023-01-09T09:48:16.884Z,7.24
2023-01-09T09:51:50.293Z,7.17
2023-01-09T09:54:53.197Z,7.13
2023-01-09T09:57:58.660Z,7.03
2023-01-09T10:01:02.179Z,6.99
2023-01-09T10:04:11.589Z,7.09
2023-01-09T10:07:29.858Z,7.12
2023-01-09T10:10:46.988Z,6.90
2023-01-09T10:14:06.280Z,7.10
2023-01-09T10:17:44.503Z,7.23
2023-01-09T10:20:49.507Z,7.28
2023-01-09T10:24:14.921Z,7.42
2023-01-09T10:27:25.765Z,7.50
2023-01-09T10:30:33.607Z,7.55
2023-01-09T10:34:03.705Z,7.73
2023-01-09T10:37:09.785Z,8.10
2023-01-09T10:40:41.405Z,8.27
2023-01-09T10:44:01.199Z,8.21
2023-01-09T10:47:12.138Z,8.22
2023-01-09T10:50:31.079Z,8.50
2023-01-09T10:53:38.835Z,8.40
2023-01-09T10:56:48.106Z,8.32
2023-01-09T10:59:50.756Z,8.37
2023-01-09T11:02:55.179Z,8.48
2023-01-09T11:05:59.437Z,8.41
2023-01-09T11:09:03.296Z,8.28
2023-01-09T11:12:27.319Z,8.41
2023-01-09T11:15:30.479Z,8.44
2023-01-09T11:18:35.157Z,8.38
2023-01-09T11:21:40.724Z,8.37
2023-01-09T11:24:44.049Z,8.41
2023-01-09T11:28:06.856Z,8.45
2023-01-09T11:31:09.966Z,8.48
2023-01-09T11:34:19.284Z,8.42
2023-01-09T11:37:32.156Z,8.44
2023-01-09T11:40:59.408Z,8.32
2023-01-09T11:44:04.692Z,8.46
2023-01-09T11:47:25.863Z,8.53
2023-01-09T11:50:30.777Z,8.53
2023-01-09T11:53:52.225Z,8.71
2023-01-09T11:56:56.147Z,8.63
2023-01-09T12:00:03.398Z,8.42
2023-01-09T12:03:22.056Z,8.54
2023-01-09T12:06:37.789Z,8.84
2023-01-09T12:09:40.588Z,8.80
2023-01-09T12:13:03.678Z,8.79
2023-01-09T12:16:20.687Z,8.86
2023-01-09T12:19:38.283Z,8.57
2023-01-09T12:23:13.399Z,8.53
2023-01-09T12:26:19.909Z,8.60
2023-01-09T12:29:25.645Z,8.60
2023-01-09T12:32:31.459Z,8.64
2023-01-09T12:35:44.528Z,8.89
2023-01-09T12:38:56.307Z,8.79
2023-01-09T12:42:25.438Z,8.66
2023-01-09T12:45:52.758Z,8.69
2023-01-09T12:49:10.245Z,8.74
2023-01-09T12:52:23.492Z,8.73
2023-01-09T12:55:38.634Z,8.77
2023-01-09T12:58:45.026Z,8.98
2023-01-09T13:01:50.182Z,8.81
2023-01-09T13:05:21.684Z,8.85
2023-01-09T13:08:34.432Z,8.41
2023-01-09T13:11:45.266Z,8.59
2023-01-09T13:15:03.746Z,8.53
2023-01-09T13:18:09.640Z,8.62
2023-01-09T13:21:13.699Z,8.49
2023-01-09T13:24:22.829Z,8.37
2023-01-09T13:27:31.698Z,8.46
2023-01-09T13:30:58.527Z,8.42
2023-01-09T13:34:04.523Z,8.40
2023-01-09T13:37:26.085Z,8.43
2023-01-09T13:40:30.384Z,8.45
2023-01-09T13:43:54.702Z,8.45
2023-01-09T13:47:00.905Z,8.29
2023-01-09T13:50:09.876Z,8.19
2023-01-09T13:53:18.247Z,8.54
2023-01-09T13:56:23.923Z,8.33
2023-01-09T13:59:28.791Z,8.60
2023-01-09T14:02:34.836Z,8.43
2023-01-09T14:05:38.037Z,8.38
2023-01-09T14:08:42.135Z,8.71
2023-01-09T14:11:47.417Z,8.35
2023-01-09T14:14:53.921Z,8.45
2023-01-09T14:18:05.862Z,8.72
2023-01-09T14:21:12.092Z,8.59
2023-01-09T14:24:32.272Z,8.31
2023-01-09T14:28:09.131Z,8.57
2023-01-09T14:31:29.910Z,8.25
2023-01-09T14:34:37.874Z,8.20
2023-01-09T14:37:41.998Z,8.36
2023-01-09T14:41:47.599Z,8.34
2023-01-09T14:45:00.884Z,8.44
2023-01-09T14:48:11.337Z,8.29
2023-01-09T14:51:17.429Z,8.27
2023-01-09T14:54:30.081Z,8.17
2023-01-09T14:57:34.821Z,8.27
2023-01-09T15:00:45.393Z,8.41
2023-01-09T15:03:51.584Z,8.35
2023-01-09T15:06:54.423Z,8.33
2023-01-09T15:10:02.322Z,8.27
2023-01-09T15:13:10.383Z,8.02
2023-01-09T15:16:19.081Z,8.09
2023-01-09T15:19:21.756Z,8.40
2023-01-09T15:22:36.244Z,8.11
2023-01-09T15:25:40.819Z,8.19
2023-01-09T15:28:44.087Z,8.28
2023-01-09T15:31:49.928Z,8.26
2023-01-09T15:34:55.280Z,8.13
2023-01-09T15:37:58.896Z,8.03
2023-01-09T15:41:08.661Z,8.15
2023-01-09T15:44:21.247Z,8.25
2023-01-09T15:47:27.918Z,8.13
2023-01-09T15:50:30.895Z,8.23
2023-01-09T15:53:34.546Z,8.21
2023-01-09T15:56:39.328Z,8.25
2023-01-09T15:59:42.209Z,8.17
2023-01-09T16:03:04.925Z,8.18
2023-01-09T16:06:13.687Z,8.07
2023-01-09T16:09:29.396Z,7.98
2023-01-09T16:12:33.452Z,7.94
2023-01-09T16:15:36.077Z,7.88
2023-01-09T16:18:49.573Z,7.87
2023-01-09T16:21:58.239Z,7.84
2023-01-09T16:25:22.058Z,7.82
2023-01-09T16:28:30.703Z,7.85
2023-01-09T16:31:33.991Z,7.71
2023-01-09T16:34:36.583Z,7.80
2023-01-09T16:37:40.489Z,7.91
2023-01-09T16:41:26.485Z,7.83
2023-01-09T16:44:29.352Z,7.82
2023-01-09T16:47:31.961Z,7.75
2023-01-09T16:50:34.937Z,7.66
2023-01-09T16:53:37.720Z,7.63
2023-01-09T16:56:42.929Z,7.71
2023-01-09T16:59:46.090Z,7.66
2023-01-09T17:02:49.042Z,7.53
2023-01-09T17:05:54.877Z,7.48
2023-01-09T17:08:58.509Z,7.65
2023-01-09T17:12:01.113Z,7.75
2023-01-09T17:15:04.303Z,7.68
2023-01-09T17:18:16.779Z,7.52
2023-01-09T17:21:24.759Z,7.44
2023-01-09T17:24:46.281Z,7.56
2023-01-09T17:28:07.974Z,7.50
2023-01-09T17:31:12.023Z,7.50
2023-01-09T17:34:14.982Z,7.51
2023-01-09T17:37:19.167Z,7.46
2023-01-09T17:40:23.609Z,7.43
2023-01-09T17:43:26.127Z,7.26
2023-01-09T17:46:31.454Z,7.23
2023-01-09T17:49:34.685Z,7.24
2023-01-09T17:52:37.613Z,7.22
2023-01-09T17:55:41.760Z,7.17
2023-01-09T17:58:48.203Z,7.12
2023-01-09T18:01:50.940Z,7.19
2023-01-09T18:04:53.982Z,7.17
2023-01-09T18:07:57.386Z,7.20
2023-01-09T18:11:04.671Z,7.12
2023-01-09T18:14:08.435Z,7.30
2023-01-09T18:17:13.246Z,7.28
2023-01-09T18:20:16.266Z,7.29
2023-01-09T18:23:19.762Z,7.04
2023-01-09T18:26:24.408Z,6.97
2023-01-09T18:29:27.872Z,7.00
2023-01-09T18:32:30.924Z,6.95
2023-01-09T18:35:34.235Z,6.86
2023-01-09T18:38:39.574Z,6.93
2023-01-09T18:41:43.124Z,7.01
2023-01-09T18:44:45.709Z,6.96
2023-01-09T18:47:48.572Z,6.94
2023-01-09T18:50:51.264Z,6.77
2023-01-09T18:53:56.098Z,6.89
2023-01-09T18:56:58.742Z,6.97
2023-01-09T19:00:01.984Z,6.90
2023-01-09T19:03:05.932Z,6.94
2023-01-09T19:06:09.148Z,6.86
2023-01-09T19:09:12.159Z,6.76
2023-01-09T19:12:15.602Z,6.72
2023-01-09T19:15:18.714Z,6.77
2023-01-09T19:18:24.246Z,6.79
2023-01-09T19:21:27.708Z,6.73
2023-01-09T19:24:33.132Z,6.72
2023-01-09T19:27:36.749Z,6.75
2023-01-09T19:30:40.458Z,6.72
2023-01-09T19:33:44.776Z,6.58
2023-01-09T19:36:47.977Z,6.67
2023-01-09T19:39:53.293Z,6.67
2023-01-09T19:42:57.764Z,6.69
2023-01-09T19:46:01.689Z,6.72
2023-01-09T19:49:06.252Z,6.65
2023-01-09T19:52:08.925Z,6.70
2023-01-09T19:55:13.776Z,6.66
2023-01-09T19:58:17.126Z,6.59
2023-01-09T20:01:24.685Z,6.61
2023-01-09T20:04:29.926Z,6.56
2023-01-09T20:07:32.658Z,6.56
2023-01-09T20:10:39.942Z,6.57
2023-01-09T20:13:43.925Z,6.57
2023-01-09T20:16:50.158Z,6.60
2023-01-09T20:19:53.184Z,6.53
2023-01-09T20:22:56.243Z,6.57
2023-01-09T20:26:00.194Z,6.54
2023-01-09T20:29:04.535Z,6.59
2023-01-09T20:32:09.927Z,6.52
2023-01-09T20:35:12.811Z,6.40
2023-01-09T20:38:15.771Z,6.49
2023-01-09T20:41:25.996Z,6.51
2023-01-09T20:44:29.133Z,6.44
2023-01-09T20:47:32.216Z,6.41
2023-01-09T20:50:35.454Z,6.38
2023-01-09T20:53:55.533Z,6.35
2023-01-09T20:56:58.998Z,6.40
2023-01-09T21:00:02.268Z,6.41
2023-01-09T21:03:06.410Z,6.45
2023-01-09T21:06:15.114Z,6.53
2023-01-09T21:09:17.829Z,6.68
2023-01-09T21:12:28.689Z,6.55
2023-01-09T21:15:31.549Z,6.55
2023-01-09T21:18:34.900Z,6.66
2023-01-09T21:21:38.323Z,6.74
2023-01-09T21:24:41.193Z,6.71
2023-01-09T21:27:46.269Z,6.67
2023-01-09T21:30:53.016Z,6.64
2023-01-09T21:33:56.037Z,6.69
2023-01-09T21:36:59.172Z,6.77
2023-01-09T21:40:02.351Z,6.75
2023-01-09T21:43:23.774Z,6.76
2023-01-09T21:46:44.874Z,7.09
2023-01-09T21:49:47.831Z,7.05
2023-01-09T21:52:50.444Z,7.03
2023-01-09T21:55:55.242Z,7.10
2023-01-09T21:58:57.925Z,6.90
2023-01-09T22:02:00.832Z,6.97
2023-01-09T22:05:03.989Z,6.91
2023-01-09T22:08:07.112Z,6.85
2023-01-09T22:11:10.561Z,6.92
2023-01-09T22:14:15.789Z,6.77
2023-01-09T22:17:18.739Z,6.79
2023-01-09T22:20:21.295Z,6.89
2023-01-09T22:23:24.360Z,6.89
2023-01-09T22:26:27.795Z,6.88
2023-01-09T22:29:30.778Z,6.83
2023-01-09T22:32:35.064Z,6.89
2023-01-09T22:35:39.527Z,6.69
2023-01-09T22:38:42.302Z,6.73
2023-01-09T22:41:49.619Z,6.67
2023-01-09T22:44:52.310Z,6.67
2023-01-09T22:47:56.283Z,6.67
2023-01-09T22:51:04.611Z,6.67
2023-01-09T22:54:07.584Z,6.56
2023-01-09T22:57:10.218Z,6.59
2023-01-09T23:00:14.984Z,6.58
2023-01-09T23:03:17.779Z,6.41
2023-01-09T23:06:22.979Z,6.49
2023-01-09T23:09:26.789Z,6.62
2023-01-09T23:12:29.676Z,6.58
2023-01-09T23:15:32.298Z,6.59
2023-01-09T23:18:35.201Z,6.56
2023-01-09T23:21:37.753Z,6.41
2023-01-09T23:24:40.692Z,6.46
2023-01-09T23:27:43.362Z,6.35
2023-01-09T23:30:46.969Z,6.34
2023-01-09T23:33:49.702Z,6.31
2023-01-09T23:36:54.341Z,6.26
2023-01-09T23:39:57.060Z,6.19
2023-01-09T23:43:08.977Z,6.28
2023-01-09T23:46:14.980Z,6.17
2023-01-09T23:49:18.129Z,6.41
2023-01-09T23:52:20.879Z,6.23
2023-01-09T23:55:24.244Z,6.33
2023-01-09T23:58:27.729Z,6.38
